KYNG/YNG METAR and TAF weather

Enter ICAO airport designator
Station Type Date Time Source
KYNG METAR 2019/12/08 00:51 UTC NOAA

KYNG 080051Z 12003KT 10SM SCT250 M03/M08 A3037 RMK AO2 SLP302 T10331078


Station Type Date Time Source
KYNG Decoded METAR 2019/12/08 00:51 UTC NOAA

YOUNGSTOWN-WARREN REG AIRPRT, OH, United States (KYNG) 41-15N 080-40W 360M
Dec 07, 2019 - 07:51 PM EST / 2019.12.08 0051 UTC
Wind: from the ESE (120 degrees) at 3 MPH (3 KT):0
Visibility: 10 mile(s):0
Sky conditions: partly cloudy
Temperature: 26.1 F (-3.3 C)
Dew Point: 18.0 F (-7.8 C)
Relative Humidity: 70%
Pressure (altimeter): 30.37 in. Hg (1028 hPa)
ob: KYNG 080051Z 12003KT 10SM SCT250 M03/M08 A3037 RMK AO2 SLP302 T10331078
cycle: 1

Station Type Date Time Source
KYNG TAF 2019/12/07 18:33 UTC NOAA

TAF KYNG 071731Z 0718/0818 25004KT P6SM SCT025 BKN140
FM072100 22004KT P6SM BKN200
FM080100 14004KT P6SM BKN200
FM081300 16009KT P6SM BKN250
FM081600 18012KT P6SM BKN200
FM081700 19012KT P6SM OVC120

Example: see airport list